createdAt,value
2018-12-18T00:01:56.312Z,7.53
2018-12-18T00:04:31.724Z,7.37
2018-12-18T00:07:10.457Z,7.17
2018-12-18T00:09:44.428Z,7.20
2018-12-18T00:12:22.335Z,6.70
2018-12-18T00:14:55.745Z,7.33
2018-12-18T00:17:28.901Z,7.10
2018-12-18T00:20:04.066Z,7.03
2018-12-18T00:22:39.186Z,6.80
2018-12-18T00:25:14.104Z,6.60
2018-12-18T00:30:26.019Z,6.43
2018-12-18T00:33:01.725Z,6.30
2018-12-18T00:35:37.357Z,6.23
2018-12-18T00:38:18.224Z,6.53
2018-12-18T00:40:51.723Z,6.50
2018-12-18T00:43:25.905Z,5.90
2018-12-18T00:45:58.316Z,6.67
2018-12-18T00:48:30.878Z,6.07
2018-12-18T00:51:04.906Z,6.73
2018-12-18T00:53:39.514Z,6.63
2018-12-18T00:56:11.725Z,7.37
2018-12-18T00:58:47.852Z,6.13
2018-12-18T01:01:24.119Z,6.50
2018-12-18T01:04:00.302Z,6.63
2018-12-18T01:06:36.005Z,6.03
2018-12-18T01:09:11.723Z,6.73
2018-12-18T01:11:47.732Z,6.33
2018-12-18T01:14:25.937Z,6.80
2018-12-18T01:17:00.190Z,6.40
2018-12-18T01:19:34.004Z,6.33
2018-12-18T01:22:08.594Z,5.57
2018-12-18T01:24:44.262Z,6.37
2018-12-18T01:27:19.657Z,5.90
2018-12-18T01:29:55.328Z,6.50
2018-12-18T01:32:30.397Z,6.30
2018-12-18T01:35:06.439Z,6.53
2018-12-18T01:37:41.725Z,6.33
2018-12-18T01:40:18.926Z,6.33
2018-12-18T01:42:53.744Z,6.43
2018-12-18T01:45:29.211Z,6.10
2018-12-18T01:48:03.167Z,6.17
2018-12-18T01:50:39.503Z,7.10
2018-12-18T01:53:13.628Z,6.70
2018-12-18T01:55:48.538Z,7.10
2018-12-18T01:58:21.726Z,6.40
2018-12-18T02:00:58.101Z,5.97
2018-12-18T02:03:36.873Z,6.30
2018-12-18T02:06:11.729Z,6.37
2018-12-18T02:08:46.491Z,6.30
2018-12-18T02:11:21.354Z,7.00
2018-12-18T02:13:57.171Z,7.60
2018-12-18T02:16:31.725Z,7.53
2018-12-18T02:19:06.117Z,7.50
2018-12-18T02:21:41.725Z,7.50
2018-12-18T02:24:17.451Z,6.93
2018-12-18T02:26:51.726Z,7.10
2018-12-18T02:29:28.333Z,6.93
2018-12-18T02:32:05.306Z,6.67
2018-12-18T02:34:40.746Z,6.70
2018-12-18T02:37:15.024Z,6.27
2018-12-18T02:39:48.866Z,6.73
2018-12-18T02:42:21.555Z,6.70
2018-12-18T02:44:58.249Z,7.63
2018-12-18T02:47:34.514Z,7.03
2018-12-18T02:50:08.799Z,7.00
2018-12-18T02:52:43.982Z,7.13
2018-12-18T02:55:18.347Z,6.87
2018-12-18T02:57:54.366Z,6.90
2018-12-18T03:00:29.153Z,6.67
2018-12-18T03:02:57.110Z,6.30
2018-12-18T03:05:33.095Z,6.33
2018-12-18T03:08:07.320Z,7.10
2018-12-18T03:10:42.586Z,6.80
2018-12-18T03:13:18.105Z,7.03
2018-12-18T03:15:53.348Z,7.13
2018-12-18T03:18:28.172Z,6.40
2018-12-18T03:21:06.643Z,7.10
2018-12-18T03:23:40.647Z,7.17
2018-12-18T03:26:16.720Z,6.67
2018-12-18T03:28:51.727Z,6.53
2018-12-18T03:31:26.013Z,7.27
2018-12-18T03:34:01.726Z,6.93
2018-12-18T03:36:36.346Z,6.90
2018-12-18T03:39:11.728Z,6.53
2018-12-18T03:41:49.432Z,7.00
2018-12-18T03:44:24.218Z,7.13
2018-12-18T03:46:58.199Z,7.17
2018-12-18T03:49:36.529Z,7.10
2018-12-18T03:52:11.726Z,6.83
2018-12-18T03:54:46.922Z,7.60
2018-12-18T03:57:21.726Z,7.70
2018-12-18T03:59:55.562Z,7.10
2018-12-18T04:02:30.607Z,7.10
2018-12-18T04:05:08.137Z,6.67
2018-12-18T04:07:42.962Z,6.80
2018-12-18T04:10:18.939Z,7.13
2018-12-18T04:12:53.436Z,7.10
2018-12-18T04:15:26.737Z,7.03
2018-12-18T04:17:59.316Z,7.50
2018-12-18T04:20:37.426Z,6.60
2018-12-18T04:23:11.727Z,6.63
2018-12-18T04:25:48.905Z,6.57
2018-12-18T04:28:22.490Z,6.47
2018-12-18T04:30:57.263Z,6.70
2018-12-18T04:33:33.382Z,7.20
2018-12-18T04:36:08.903Z,6.40
2018-12-18T04:38:43.898Z,7.10
2018-12-18T04:41:20.316Z,6.60
2018-12-18T04:43:56.303Z,6.70
2018-12-18T04:46:31.426Z,7.30
2018-12-18T04:49:05.074Z,6.33
2018-12-18T04:51:40.633Z,6.50
2018-12-18T04:54:16.739Z,6.17
2018-12-18T04:56:51.728Z,7.87
2018-12-18T04:59:25.780Z,6.13
2018-12-18T05:01:58.996Z,6.00
2018-12-18T05:04:34.633Z,6.80
2018-12-18T05:07:10.426Z,6.07
2018-12-18T05:09:45.998Z,6.10
2018-12-18T05:12:21.730Z,5.90
2018-12-18T05:14:56.737Z,6.00
2018-12-18T05:17:31.729Z,6.27
2018-12-18T05:20:08.122Z,5.73
2018-12-18T05:22:42.915Z,6.10
2018-12-18T05:25:18.285Z,5.47
2018-12-18T05:27:54.702Z,5.67
2018-12-18T05:30:28.459Z,5.40
2018-12-18T05:33:03.340Z,4.83
2018-12-18T05:35:39.108Z,4.97
2018-12-18T05:38:13.630Z,4.33
2018-12-18T05:40:48.945Z,4.13
2018-12-18T05:43:25.696Z,4.20
2018-12-18T05:45:59.631Z,4.10
2018-12-18T05:48:38.380Z,4.03
2018-12-18T05:51:13.571Z,4.20
2018-12-18T05:53:48.740Z,3.90
2018-12-18T05:56:24.547Z,4.10
2018-12-18T05:58:58.284Z,4.17
2018-12-18T06:01:31.732Z,3.77
2018-12-18T06:04:06.814Z,3.60
2018-12-18T06:06:41.333Z,3.90
2018-12-18T06:09:15.103Z,3.60
2018-12-18T06:11:48.845Z,3.57
2018-12-18T06:14:23.819Z,3.50
2018-12-18T06:16:57.893Z,3.50
2018-12-18T06:19:33.041Z,3.80
2018-12-18T06:22:06.844Z,3.50
2018-12-18T06:24:42.864Z,3.70
2018-12-18T06:27:18.382Z,3.60
2018-12-18T06:29:55.035Z,3.43
2018-12-18T06:32:30.823Z,3.70
2018-12-18T06:35:10.329Z,3.87
2018-12-18T06:37:44.433Z,4.00
2018-12-18T06:40:19.801Z,4.07
2018-12-18T06:42:56.480Z,3.90
2018-12-18T06:45:32.942Z,3.80
2018-12-18T06:48:07.633Z,4.07
2018-12-18T06:50:43.373Z,4.20
2018-12-18T06:53:18.645Z,4.33
2018-12-18T06:55:53.988Z,4.27
2018-12-18T06:58:25.753Z,4.10
2018-12-18T07:01:01.419Z,3.57
2018-12-18T07:03:36.013Z,4.00
2018-12-18T07:06:11.458Z,4.00
2018-12-18T07:08:44.927Z,3.80
2018-12-18T07:11:19.769Z,3.23
2018-12-18T07:13:53.233Z,3.70
2018-12-18T07:16:28.744Z,3.90
2018-12-18T07:19:02.780Z,4.00
2018-12-18T07:21:31.731Z,3.73
2018-12-18T07:24:06.313Z,3.53
2018-12-18T07:26:41.072Z,3.70
2018-12-18T07:29:15.608Z,3.70
2018-12-18T07:31:46.660Z,3.60
2018-12-18T07:34:23.898Z,3.47
2018-12-18T07:36:51.824Z,3.37
2018-12-18T07:39:23.941Z,3.77
2018-12-18T07:41:56.253Z,3.53
2018-12-18T07:44:28.638Z,3.40
2018-12-18T07:47:02.907Z,3.70
2018-12-18T07:49:35.585Z,3.77
2018-12-18T07:52:10.128Z,3.70
2018-12-18T07:54:46.077Z,3.60
2018-12-18T07:57:21.571Z,3.60
2018-12-18T07:59:58.933Z,3.40
2018-12-18T08:02:34.605Z,3.20
2018-12-18T08:05:08.883Z,3.00
2018-12-18T08:07:42.956Z,2.90
2018-12-18T08:10:11.537Z,3.00
2018-12-18T08:12:41.606Z,2.50
2018-12-18T08:15:12.923Z,2.83
2018-12-18T08:17:46.458Z,2.70
2018-12-18T08:20:21.731Z,2.80
2018-12-18T08:22:53.237Z,3.10
2018-12-18T08:25:27.931Z,2.60
2018-12-18T08:28:02.298Z,2.80
2018-12-18T08:30:35.927Z,2.57
2018-12-18T08:33:11.396Z,2.53
2018-12-18T08:35:44.200Z,2.87
2018-12-18T08:38:18.891Z,2.77
2018-12-18T08:40:52.158Z,2.97
2018-12-18T08:43:25.937Z,2.93
2018-12-18T08:45:58.901Z,3.40
2018-12-18T08:48:27.467Z,4.50
2018-12-18T08:50:59.950Z,4.60
2018-12-18T08:53:33.023Z,3.90
2018-12-18T08:56:06.754Z,3.20
2018-12-18T08:58:41.733Z,3.33
2018-12-18T09:01:16.117Z,6.80
2018-12-18T09:03:49.016Z,2.80
2018-12-18T09:06:21.401Z,2.83
2018-12-18T09:08:54.088Z,2.47
2018-12-18T09:11:26.829Z,2.73
2018-12-18T09:13:58.793Z,2.00
2018-12-18T09:16:38.825Z,2.47
2018-12-18T09:19:06.956Z,2.20
2018-12-18T09:21:40.361Z,2.37
2018-12-18T09:24:14.406Z,2.20
2018-12-18T09:26:44.806Z,2.20
2018-12-18T09:29:12.635Z,2.20
2018-12-18T09:31:40.241Z,2.10
2018-12-18T09:34:08.094Z,2.00
2018-12-18T09:36:40.678Z,2.03
2018-12-18T09:39:27.129Z,2.00
2018-12-18T09:42:01.323Z,2.03
2018-12-18T09:44:34.530Z,2.10
2018-12-18T09:47:07.950Z,2.07
2018-12-18T09:49:35.924Z,2.30
2018-12-18T09:52:09.189Z,2.33
2018-12-18T09:54:42.747Z,2.47
2018-12-18T09:57:21.729Z,1.93
2018-12-18T09:59:54.306Z,2.70
2018-12-18T10:02:22.526Z,1.87
2018-12-18T10:04:56.528Z,2.20
2018-12-18T10:07:29.309Z,2.00
2018-12-18T10:09:57.582Z,2.30
2018-12-18T10:12:37.619Z,2.23
2018-12-18T10:15:09.683Z,2.23
2018-12-18T10:17:41.727Z,1.90
2018-12-18T10:20:12.739Z,2.17
2018-12-18T10:22:45.650Z,2.27
2018-12-18T10:25:21.518Z,2.30
2018-12-18T10:27:55.078Z,2.20
2018-12-18T10:30:29.399Z,2.30
2018-12-18T10:33:01.288Z,2.40
2018-12-18T10:35:37.321Z,2.50
2018-12-18T10:38:12.276Z,2.30
2018-12-18T10:40:46.831Z,2.77
2018-12-18T10:43:22.226Z,2.50
2018-12-18T10:45:53.379Z,2.93
2018-12-18T10:48:27.890Z,2.73
2018-12-18T10:51:02.951Z,2.63
2018-12-18T10:53:35.775Z,2.60
2018-12-18T10:56:08.527Z,2.73
2018-12-18T10:58:43.311Z,2.70
2018-12-18T11:01:21.727Z,2.73
2018-12-18T11:03:56.841Z,2.93
2018-12-18T11:06:30.244Z,3.17
2018-12-18T11:09:04.896Z,3.00
2018-12-18T11:11:39.868Z,3.10
2018-12-18T11:14:11.728Z,3.10
2018-12-18T11:16:44.642Z,3.10
2018-12-18T11:19:13.291Z,3.20
2018-12-18T11:21:46.795Z,3.10
2018-12-18T11:24:22.583Z,3.10
2018-12-18T11:26:56.169Z,3.40
2018-12-18T11:29:27.611Z,3.70
2018-12-18T11:32:01.417Z,3.73
2018-12-18T11:34:36.718Z,3.10
2018-12-18T11:37:11.728Z,3.70
2018-12-18T11:39:43.047Z,3.90
2018-12-18T11:42:16.493Z,3.90
2018-12-18T11:44:49.170Z,4.27
2018-12-18T11:47:24.265Z,3.90
2018-12-18T11:49:52.343Z,4.10
2018-12-18T11:52:27.527Z,4.40
2018-12-18T11:55:02.382Z,4.30
2018-12-18T11:57:34.164Z,4.47
2018-12-18T12:00:07.561Z,4.40
2018-12-18T12:02:42.999Z,4.83
2018-12-18T12:05:17.423Z,4.70
2018-12-18T12:07:50.957Z,4.20
2018-12-18T12:10:18.820Z,4.63
2018-12-18T12:12:51.275Z,3.90
2018-12-18T12:15:26.171Z,4.40
2018-12-18T12:17:58.304Z,4.60
2018-12-18T12:20:30.000Z,4.50
2018-12-18T12:25:41.727Z,4.67
2018-12-18T12:28:12.673Z,4.87
2018-12-18T12:30:46.372Z,4.50
2018-12-18T12:33:22.982Z,5.00
2018-12-18T12:35:55.234Z,5.03
2018-12-18T12:38:28.894Z,5.23
2018-12-18T12:41:00.017Z,5.10
2018-12-18T12:43:33.930Z,5.10
2018-12-18T12:46:07.403Z,4.93
2018-12-18T12:48:43.101Z,4.90
2018-12-18T12:51:13.063Z,5.07
2018-12-18T12:53:47.662Z,5.37
2018-12-18T12:56:21.511Z,5.20
2018-12-18T12:58:54.268Z,5.43
2018-12-18T13:01:28.986Z,5.10
2018-12-18T13:04:02.732Z,5.40
2018-12-18T13:06:36.480Z,4.97
2018-12-18T13:09:07.149Z,5.23
2018-12-18T13:11:37.889Z,5.33
2018-12-18T13:14:08.885Z,5.70
2018-12-18T13:16:41.146Z,5.03
2018-12-18T13:19:12.815Z,5.53
2018-12-18T13:21:47.047Z,5.23
2018-12-18T13:24:19.826Z,5.53
2018-12-18T13:26:53.156Z,5.33
2018-12-18T13:29:28.272Z,5.90
2018-12-18T13:32:03.865Z,6.70
2018-12-18T13:34:37.154Z,6.00
2018-12-18T13:37:10.801Z,6.20
2018-12-18T13:39:42.120Z,6.00
2018-12-18T13:42:14.931Z,6.47
2018-12-18T13:44:47.029Z,6.60
2018-12-18T13:47:19.164Z,6.30
2018-12-18T13:49:53.898Z,6.60
2018-12-18T13:52:26.341Z,6.50
2018-12-18T13:55:00.835Z,6.67
2018-12-18T13:57:33.491Z,7.53
2018-12-18T14:00:07.575Z,6.87
2018-12-18T14:02:39.389Z,7.73
2018-12-18T14:05:11.724Z,7.20
2018-12-18T14:07:48.305Z,7.27
2018-12-18T14:10:16.225Z,6.80
2018-12-18T14:13:03.566Z,7.00
2018-12-18T14:15:37.823Z,7.00
2018-12-18T14:18:09.455Z,6.20
2018-12-18T14:20:38.015Z,6.47
2018-12-18T14:23:12.976Z,6.07
2018-12-18T14:25:47.763Z,6.33
2018-12-18T14:28:21.281Z,5.77
2018-12-18T14:30:55.904Z,6.33
2018-12-18T14:33:33.101Z,6.00
2018-12-18T14:36:05.820Z,6.23
2018-12-18T14:38:37.992Z,5.87
2018-12-18T14:41:11.674Z,6.20
2018-12-18T14:43:43.248Z,6.47
2018-12-18T14:46:18.238Z,5.97
2018-12-18T14:48:51.725Z,5.93
2018-12-18T14:51:20.021Z,6.37
2018-12-18T14:53:53.194Z,6.17
2018-12-18T14:56:28.521Z,6.03
2018-12-18T14:58:59.932Z,6.30
2018-12-18T15:01:33.198Z,6.17
2018-12-18T15:04:06.311Z,6.30
2018-12-18T15:06:41.196Z,6.23
2018-12-18T15:09:11.634Z,5.93
2018-12-18T15:11:45.092Z,6.80
2018-12-18T15:14:16.821Z,6.23
2018-12-18T15:16:51.451Z,7.43
2018-12-18T15:19:25.271Z,6.47
2018-12-18T15:21:55.891Z,6.50
2018-12-18T15:24:28.475Z,6.97
2018-12-18T15:27:01.346Z,7.40
2018-12-18T15:29:32.528Z,7.23
2018-12-18T15:32:06.667Z,6.50
2018-12-18T15:34:38.889Z,7.23
2018-12-18T15:37:14.894Z,7.30
2018-12-18T15:39:43.945Z,6.10
2018-12-18T15:42:16.026Z,6.27
2018-12-18T15:44:51.725Z,9.03
2018-12-18T15:47:24.556Z,9.67
2018-12-18T15:49:55.786Z,10.03
2018-12-18T15:52:34.678Z,10.27
2018-12-18T15:55:04.212Z,11.67
2018-12-18T15:57:33.238Z,12.27
2018-12-18T16:00:04.898Z,14.70
2018-12-18T16:02:38.816Z,16.20
2018-12-18T16:05:11.113Z,14.13
2018-12-18T16:07:43.004Z,14.07
2018-12-18T16:10:12.727Z,14.23
2018-12-18T16:12:47.729Z,13.30
2018-12-18T16:15:21.020Z,14.60
2018-12-18T16:17:53.477Z,13.33
2018-12-18T16:20:28.999Z,11.03
2018-12-18T16:23:02.309Z,11.13
2018-12-18T16:25:35.209Z,9.83
2018-12-18T16:28:04.298Z,9.50
2018-12-18T16:30:37.989Z,8.87
2018-12-18T16:33:14.833Z,9.00
2018-12-18T16:35:46.340Z,10.83
2018-12-18T16:38:20.670Z,10.27
2018-12-18T16:40:51.726Z,9.17
2018-12-18T16:43:21.388Z,9.17
2018-12-18T16:45:55.175Z,9.47
2018-12-18T16:48:26.528Z,8.53
2018-12-18T16:50:56.867Z,9.87
2018-12-18T16:53:29.627Z,8.93
2018-12-18T16:56:01.228Z,10.73
2018-12-18T16:58:34.605Z,10.40
2018-12-18T17:01:02.901Z,9.87
2018-12-18T17:03:36.862Z,10.47
2018-12-18T17:06:08.317Z,9.07
2018-12-18T17:08:41.726Z,8.80
2018-12-18T17:11:09.830Z,8.57
2018-12-18T17:13:37.835Z,9.57
2018-12-18T17:16:12.883Z,9.80
2018-12-18T17:18:48.191Z,9.83
2018-12-18T17:21:16.826Z,9.67
2018-12-18T17:23:50.615Z,10.50
2018-12-18T17:26:24.410Z,11.40
2018-12-18T17:28:58.477Z,11.93
2018-12-18T17:31:32.937Z,13.27
2018-12-18T17:34:07.159Z,14.53
2018-12-18T17:36:41.726Z,15.40
2018-12-18T17:39:13.709Z,15.93
2018-12-18T17:41:50.053Z,17.80
2018-12-18T17:44:23.859Z,17.50
2018-12-18T17:46:56.556Z,18.70
2018-12-18T17:49:27.517Z,18.77
2018-12-18T17:52:00.257Z,18.80
2018-12-18T17:54:36.152Z,20.07
2018-12-18T17:57:10.055Z,19.70
2018-12-18T17:59:43.322Z,20.67
2018-12-18T18:02:14.914Z,21.33
2018-12-18T18:04:48.863Z,21.90
2018-12-18T18:07:28.681Z,21.57
2018-12-18T18:10:02.452Z,20.87
2018-12-18T18:12:37.353Z,20.73
2018-12-18T18:15:16.210Z,21.73
2018-12-18T18:17:48.334Z,21.23
2018-12-18T18:20:22.477Z,23.07
2018-12-18T18:22:55.088Z,21.83
2018-12-18T18:25:30.760Z,21.87
2018-12-18T18:28:07.307Z,21.60
2018-12-18T18:33:40.132Z,22.63
2018-12-18T18:36:14.386Z,22.93
2018-12-18T18:38:46.964Z,21.57
2018-12-18T18:41:21.790Z,23.30
2018-12-18T18:43:55.567Z,23.70
2018-12-18T18:46:30.530Z,20.60
2018-12-18T18:49:04.950Z,22.13
2018-12-18T18:51:40.052Z,22.63
2018-12-18T18:54:14.933Z,22.10
2018-12-18T18:56:48.109Z,21.07
2018-12-18T18:59:23.126Z,21.07
2018-12-18T19:01:58.419Z,21.20
2018-12-18T19:04:32.988Z,22.20
2018-12-18T19:07:07.738Z,19.43
2018-12-18T19:09:41.628Z,21.20
2018-12-18T19:12:15.520Z,19.77
2018-12-18T19:14:50.208Z,20.57
2018-12-18T19:17:23.583Z,20.37
2018-12-18T19:20:00.504Z,21.20
2018-12-18T19:22:37.486Z,20.73
2018-12-18T19:25:10.230Z,20.83
2018-12-18T19:27:43.330Z,20.20
2018-12-18T19:30:19.554Z,19.80
2018-12-18T19:32:52.397Z,20.63
2018-12-18T19:35:25.128Z,20.30
2018-12-18T19:38:03.025Z,20.13
2018-12-18T19:40:35.726Z,19.50
2018-12-18T19:43:09.123Z,20.00
2018-12-18T19:45:42.492Z,20.87
2018-12-18T19:48:17.992Z,20.60
2018-12-18T19:50:52.565Z,20.80
2018-12-18T19:53:26.919Z,20.77
2018-12-18T19:56:01.725Z,21.20
2018-12-18T19:58:36.582Z,20.30
2018-12-18T20:01:11.725Z,21.43
2018-12-18T20:03:48.046Z,20.17
2018-12-18T20:06:23.788Z,21.17
2018-12-18T20:08:59.981Z,19.47
2018-12-18T20:11:35.559Z,18.87
2018-12-18T20:14:12.306Z,18.90
2018-12-18T20:16:45.446Z,20.63
2018-12-18T20:19:19.880Z,20.10
2018-12-18T20:21:56.794Z,19.50
2018-12-18T20:24:33.224Z,19.83
2018-12-18T20:27:09.442Z,19.47
2018-12-18T20:29:43.735Z,20.27
2018-12-18T20:32:21.362Z,18.73
2018-12-18T20:34:57.370Z,19.13
2018-12-18T20:37:30.412Z,20.27
2018-12-18T20:40:05.325Z,19.50
2018-12-18T20:42:39.551Z,20.50
2018-12-18T20:45:14.639Z,18.93
2018-12-18T20:47:49.531Z,18.80
2018-12-18T20:50:21.725Z,18.43
2018-12-18T20:52:58.666Z,19.53
2018-12-18T20:55:38.843Z,18.53
2018-12-18T20:58:08.585Z,19.70
2018-12-18T21:00:40.152Z,19.57
2018-12-18T21:03:16.319Z,19.67
2018-12-18T21:05:49.874Z,19.43
2018-12-18T21:08:25.894Z,19.33
2018-12-18T21:11:01.733Z,19.60
2018-12-18T21:13:35.624Z,19.47
2018-12-18T21:16:12.731Z,20.13
2018-12-18T21:18:46.675Z,20.73
2018-12-18T21:21:20.022Z,20.30
2018-12-18T21:23:52.041Z,20.80
2018-12-18T21:26:23.851Z,20.23
2018-12-18T21:28:57.160Z,20.30
2018-12-18T21:31:30.726Z,20.00
2018-12-18T21:34:03.640Z,21.20
2018-12-18T21:36:36.389Z,20.47
2018-12-18T21:39:11.543Z,21.33
2018-12-18T21:41:41.598Z,21.30
2018-12-18T21:44:11.003Z,20.40
2018-12-18T21:46:42.111Z,21.97
2018-12-18T21:49:12.771Z,19.90
2018-12-18T21:51:42.315Z,20.53
2018-12-18T21:54:12.930Z,19.10
2018-12-18T21:56:43.525Z,20.33
2018-12-18T21:59:13.623Z,20.60
2018-12-18T22:01:43.167Z,21.03
2018-12-18T22:04:13.123Z,20.80
2018-12-18T22:06:42.449Z,20.47
2018-12-18T22:09:12.459Z,20.00
2018-12-18T22:11:42.611Z,21.17
2018-12-18T22:14:11.655Z,21.17
2018-12-18T22:16:40.348Z,20.73
2018-12-18T22:19:10.272Z,20.50
2018-12-18T22:21:44.808Z,20.63
2018-12-18T22:24:17.906Z,21.47
2018-12-18T22:26:48.233Z,21.00
2018-12-18T22:29:22.709Z,19.53
2018-12-18T22:31:56.940Z,20.53
2018-12-18T22:34:31.253Z,20.83
2018-12-18T22:37:01.406Z,20.73
2018-12-18T22:39:35.124Z,21.47
2018-12-18T22:42:09.013Z,21.60
2018-12-18T22:44:42.031Z,22.57
2018-12-18T22:47:15.871Z,23.23
2018-12-18T22:49:48.540Z,21.80
2018-12-18T22:52:17.096Z,22.13
2018-12-18T22:54:47.767Z,22.07
2018-12-18T22:57:18.993Z,22.13
2018-12-18T22:59:52.734Z,22.87
2018-12-18T23:02:26.500Z,21.60
2018-12-18T23:05:00.038Z,22.63
2018-12-18T23:07:30.547Z,23.90
2018-12-18T23:10:03.570Z,22.70
2018-12-18T23:12:34.363Z,24.00
2018-12-18T23:15:08.103Z,23.73
2018-12-18T23:17:41.579Z,23.53
2018-12-18T23:20:15.382Z,23.37
2018-12-18T23:22:47.052Z,23.87
2018-12-18T23:25:15.438Z,24.37
2018-12-18T23:27:51.724Z,26.03
2018-12-18T23:30:25.661Z,22.87
2018-12-18T23:32:58.865Z,25.20
2018-12-18T23:35:32.074Z,24.43
2018-12-18T23:38:05.110Z,23.30
2018-12-18T23:40:38.268Z,22.40
2018-12-18T23:43:09.955Z,23.07
2018-12-18T23:45:42.944Z,23.17
2018-12-18T23:48:19.371Z,21.67
2018-12-18T23:50:52.281Z,21.53
2018-12-18T23:53:27.643Z,23.77
2018-12-18T23:56:01.188Z,23.20
2018-12-18T23:58:30.889Z,22.20
